»·PEaware :: N6275X KAMA-KSRR

N6275X :: KAMA-KSRR

FLIGHT INFORMATION

Flight Status: Arrived
Operator: Privately registered:
United States
More flights under this callsign
Pilot: Mark H. (209)
Aircraft: ROCKWELL 500 SHRIKE COMMANDER
(AC50)
More flights by this aircraft type
Origin: KAMA Amarillo Intl
United States
Destination: KSRR Sierra Blanca Regl
United States
More flights between these airports :: More routes between these airports
Route: YACUL V280 CME V68 HONDS
File this flight plan on PilotEdge
Remarks:
Altitude:
(Current/Filed)
10,500ft
Speed:
(Current/Filed)
165kts
Departed: 16-Jul-17 09:34 AM
Arrived: 16-Jul-17 10:59 AM
Distance/Time
Traveled:
217nm/1:25
Distance/Time
To Go:
Arrived

Flight Plot

Page will automatically refresh every two minutes.

Flight plan parsing failed; only flown route is shown


Map Options




Map Legend


Flown Route
Filed Route
Departure Airport
Arrival Airport
Navaid (VOR, NDB)
Fix

Horizontal Profiles

Position Reports

Time Latitude Longitude Heading Altitude Ground
Speed
16-Jul-17 09:34 35.204498 -101.731746 315 3612ft 4kts
16-Jul-17 09:35 35.204530 -101.731785 315 3612ft 0kts
16-Jul-17 09:36 35.205210 -101.732426 4 3612ft 12kts
16-Jul-17 09:37 35.223862 -101.709760 45 3883ft 139kts
16-Jul-17 09:38 35.253101 -101.676265 43 4904ft 147kts
16-Jul-17 09:39 35.283848 -101.655279 321 5990ft 154kts
16-Jul-17 09:40 35.272409 -101.695797 206 7060ft 153kts
16-Jul-17 09:41 35.244624 -101.730767 268 8101ft 154kts
16-Jul-17 09:42 35.215327 -101.763930 206 9152ft 153kts
16-Jul-17 09:43 35.178328 -101.789802 209 10150ft 151kts
16-Jul-17 09:44 35.145613 -101.826930 228 10518ft 177kts
16-Jul-17 09:45 35.114655 -101.876312 232 10501ft 185kts
16-Jul-17 09:46 35.083580 -101.927100 232 10496ft 187kts
16-Jul-17 09:47 35.052306 -101.978098 232 10494ft 188kts
16-Jul-17 09:48 35.021011 -102.029049 232 10500ft 187kts
16-Jul-17 09:49 34.989765 -102.079872 232 10503ft 187kts
16-Jul-17 09:50 34.957944 -102.130205 230 10503ft 187kts
16-Jul-17 09:51 34.925643 -102.180252 230 10499ft 187kts
16-Jul-17 09:52 34.893298 -102.230195 230 10498ft 187kts
16-Jul-17 09:53 34.860810 -102.280201 230 10496ft 188kts
16-Jul-17 09:54 34.828302 -102.330275 230 10500ft 189kts
16-Jul-17 09:55 34.795776 -102.380316 230 10504ft 188kts
16-Jul-17 09:56 34.763206 -102.430358 230 10503ft 189kts
16-Jul-17 09:57 34.730493 -102.480551 230 10504ft 187kts
16-Jul-17 09:58 34.698135 -102.530112 230 10496ft 188kts
16-Jul-17 09:59 34.665431 -102.580171 230 10500ft 188kts
16-Jul-17 10:00 34.632780 -102.630071 229 10502ft 187kts
16-Jul-17 10:01 34.600421 -102.679433 229 10511ft 186kts
16-Jul-17 10:02 34.567909 -102.728825 229 10505ft 188kts
16-Jul-17 10:03 34.535174 -102.778560 228 10503ft 189kts
16-Jul-17 10:04 34.502146 -102.828340 225 10503ft 189kts
16-Jul-17 10:05 34.462669 -102.869713 215 10499ft 187kts
16-Jul-17 10:06 34.421441 -102.908728 215 10501ft 188kts
16-Jul-17 10:07 34.384164 -102.943813 215 10503ft 187kts
16-Jul-17 10:08 34.343037 -102.982455 215 10503ft 187kts
16-Jul-17 10:09 34.301788 -103.021163 215 10499ft 188kts
16-Jul-17 10:10 34.260412 -103.059965 214 10503ft 188kts
16-Jul-17 10:11 34.225989 -103.092200 214 10504ft 188kts
16-Jul-17 10:12 34.184536 -103.130982 215 10500ft 188kts
16-Jul-17 10:13 34.136380 -103.175962 215 10502ft 187kts
16-Jul-17 10:14 34.095073 -103.214563 214 10499ft 187kts
16-Jul-17 10:15 34.060597 -103.246706 214 10495ft 188kts
16-Jul-17 10:16 34.019258 -103.285132 215 10506ft 187kts
16-Jul-17 10:17 33.977890 -103.323543 215 10504ft 188kts
16-Jul-17 10:18 33.936709 -103.361913 214 10499ft 185kts
16-Jul-17 10:19 33.895803 -103.399788 214 10492ft 185kts
16-Jul-17 10:20 33.854992 -103.437584 214 10492ft 185kts
16-Jul-17 10:21 33.818341 -103.480627 237 10499ft 188kts
16-Jul-17 10:22 33.793881 -103.536938 242 10492ft 191kts
16-Jul-17 10:23 33.770134 -103.594250 243 10492ft 192kts
16-Jul-17 10:24 33.746301 -103.651624 243 10491ft 192kts
16-Jul-17 10:25 33.722400 -103.709082 243 10487ft 192kts
16-Jul-17 10:26 33.698415 -103.766636 243 10499ft 192kts
16-Jul-17 10:27 33.674446 -103.824048 243 10502ft 193kts
16-Jul-17 10:28 33.650307 -103.881788 242 10495ft 194kts
16-Jul-17 10:29 33.626105 -103.939582 242 10496ft 193kts
16-Jul-17 10:30 33.601928 -103.997183 242 10491ft 193kts
16-Jul-17 10:31 33.577891 -104.054367 241 10488ft 191kts
16-Jul-17 10:32 33.553910 -104.111327 241 10481ft 191kts
16-Jul-17 10:33 33.529962 -104.168105 241 10498ft 190kts
16-Jul-17 10:34 33.505999 -104.224845 241 10496ft 191kts
16-Jul-17 10:35 33.481994 -104.281583 241 10496ft 191kts
16-Jul-17 10:36 33.457938 -104.338314 241 10497ft 191kts
16-Jul-17 10:37 33.433848 -104.394997 241 10498ft 191kts
16-Jul-17 10:38 33.409715 -104.451677 241 10497ft 191kts
16-Jul-17 10:39 33.385557 -104.508328 241 10498ft 191kts
16-Jul-17 10:40 33.361415 -104.564990 239 10500ft 192kts
16-Jul-17 10:41 33.342117 -104.624048 279 10515ft 199kts
16-Jul-17 10:42 33.382109 -104.669950 324 10502ft 204kts
16-Jul-17 10:43 33.426828 -104.711919 319 10504ft 203kts
16-Jul-17 10:44 33.469995 -104.755321 319 10501ft 201kts
16-Jul-17 10:45 33.513542 -104.799475 319 9568ft 203kts
16-Jul-17 10:46 33.556112 -104.843131 312 8629ft 198kts
16-Jul-17 10:47 33.559329 -104.902692 258 8509ft 186kts
16-Jul-17 10:48 33.549646 -104.966262 258 8501ft 198kts
16-Jul-17 10:49 33.539727 -105.031999 258 8513ft 203kts
16-Jul-17 10:50 33.529611 -105.098842 258 8540ft 204kts
16-Jul-17 10:51 33.519628 -105.165088 259 8497ft 198kts
16-Jul-17 10:52 33.509868 -105.229671 259 8479ft 197kts
16-Jul-17 10:53 33.500095 -105.293760 259 8506ft 196kts
16-Jul-17 10:54 33.490244 -105.358078 259 8501ft 196kts
16-Jul-17 10:55 33.476153 -105.416196 257 8621ft 178kts
16-Jul-17 10:56 33.471835 -105.475302 252 8551ft 179kts
16-Jul-17 10:57 33.456622 -105.529744 245 8446ft 166kts
16-Jul-17 10:58 33.437441 -105.572684 249 8290ft 138kts
16-Jul-17 10:59 33.448778 -105.597553 40 8080ft 94kts
16-Jul-17 11:00 33.453951 -105.566690 76 7365ft 95kts
16-Jul-17 11:01 33.461255 -105.540272 70 6819ft 51kts
16-Jul-17 11:02 33.463742 -105.538357 161 6819ft 0kts

Navigation Log

Ident Type
Flight plan parsing failed, navigation log unavailable